sensor_id;sensor_type;location;lat;lon;timestamp;temperature;humidity
47520;DHT22;33252;48.122;11.538;2023-02-11T00:01:35;-1.30;98.60
47520;DHT22;33252;48.122;11.538;2023-02-11T00:04:02;-1.20;98.50
47520;DHT22;33252;48.122;11.538;2023-02-11T00:06:29;-1.20;98.50
47520;DHT22;33252;48.122;11.538;2023-02-11T00:08:55;-1.20;98.50
47520;DHT22;33252;48.122;11.538;2023-02-11T00:11:23;-1.30;98.50
47520;DHT22;33252;48.122;11.538;2023-02-11T00:13:59;-1.20;98.50
47520;DHT22;33252;48.122;11.538;2023-02-11T00:16:25;-1.30;98.70
47520;DHT22;33252;48.122;11.538;2023-02-11T00:18:51;-1.30;98.80
47520;DHT22;33252;48.122;11.538;2023-02-11T00:21:21;-1.30;98.90
47520;DHT22;33252;48.122;11.538;2023-02-11T00:23:48;-1.30;98.90
47520;DHT22;33252;48.122;11.538;2023-02-11T00:26:25;-1.30;99.00
47520;DHT22;33252;48.122;11.538;2023-02-11T00:28:51;-1.40;99.00
47520;DHT22;33252;48.122;11.538;2023-02-11T00:31:19;-1.40;99.10
47520;DHT22;33252;48.122;11.538;2023-02-11T00:33:45;-1.50;99.10
47520;DHT22;33252;48.122;11.538;2023-02-11T00:36:17;-1.40;99.10
47520;DHT22;33252;48.122;11.538;2023-02-11T00:38:44;-1.40;99.10
47520;DHT22;33252;48.122;11.538;2023-02-11T00:41:10;-1.40;99.10
47520;DHT22;33252;48.122;11.538;2023-02-11T00:43:37;-1.40;99.10
47520;DHT22;33252;48.122;11.538;2023-02-11T00:46:03;-1.40;99.00
47520;DHT22;33252;48.122;11.538;2023-02-11T00:48:29;-1.40;99.00
47520;DHT22;33252;48.122;11.538;2023-02-11T00:50:54;-1.40;99.00
47520;DHT22;33252;48.122;11.538;2023-02-11T00:53:20;-1.40;99.00
47520;DHT22;33252;48.122;11.538;2023-02-11T00:55:46;-1.50;99.10
47520;DHT22;33252;48.122;11.538;2023-02-11T00:58:11;-1.60;99.30
47520;DHT22;33252;48.122;11.538;2023-02-11T01:00:37;-1.60;99.20
47520;DHT22;33252;48.122;11.538;2023-02-11T01:03:02;-1.70;99.60
47520;DHT22;33252;48.122;11.538;2023-02-11T01:05:28;-1.70;99.40
47520;DHT22;33252;48.122;11.538;2023-02-11T01:07:54;-1.60;99.40
47520;DHT22;33252;48.122;11.538;2023-02-11T01:10:19;-1.70;99.40
47520;DHT22;33252;48.122;11.538;2023-02-11T01:12:45;-1.70;99.40
47520;DHT22;33252;48.122;11.538;2023-02-11T01:15:15;-1.60;99.30
47520;DHT22;33252;48.122;11.538;2023-02-11T01:17:42;-1.60;99.30
47520;DHT22;33252;48.122;11.538;2023-02-11T01:20:15;-1.60;99.20
47520;DHT22;33252;48.122;11.538;2023-02-11T01:22:41;-1.50;99.00
47520;DHT22;33252;48.122;11.538;2023-02-11T01:25:07;-1.50;98.90
47520;DHT22;33252;48.122;11.538;2023-02-11T01:27:33;-1.50;99.00
47520;DHT22;33252;48.122;11.538;2023-02-11T01:29:59;-1.50;99.10
47520;DHT22;33252;48.122;11.538;2023-02-11T01:32:24;-1.50;99.00
47520;DHT22;33252;48.122;11.538;2023-02-11T01:34:50;-1.60;99.00
47520;DHT22;33252;48.122;11.538;2023-02-11T01:37:16;-1.60;98.90
47520;DHT22;33252;48.122;11.538;2023-02-11T01:39:41;-1.50;99.00
47520;DHT22;33252;48.122;11.538;2023-02-11T01:42:19;-1.50;99.10
47520;DHT22;33252;48.122;11.538;2023-02-11T01:44:47;-1.50;98.70
47520;DHT22;33252;48.122;11.538;2023-02-11T01:47:13;-1.50;98.80
47520;DHT22;33252;48.122;11.538;2023-02-11T01:49:42;-1.50;98.80
47520;DHT22;33252;48.122;11.538;2023-02-11T01:52:20;-1.50;98.80
47520;DHT22;33252;48.122;11.538;2023-02-11T01:54:51;-1.50;98.50
47520;DHT22;33252;48.122;11.538;2023-02-11T01:57:38;-1.50;98.40
47520;DHT22;33252;48.122;11.538;2023-02-11T02:10:47;-1.50;98.40
47520;DHT22;33252;48.122;11.538;2023-02-11T02:13:14;-1.50;98.30
47520;DHT22;33252;48.122;11.538;2023-02-11T02:16:12;-1.50;98.20
47520;DHT22;33252;48.122;11.538;2023-02-11T02:24:58;-1.60;98.60
47520;DHT22;33252;48.122;11.538;2023-02-11T02:28:13;-1.70;98.60
47520;DHT22;33252;48.122;11.538;2023-02-11T02:33:50;-1.60;98.70
47520;DHT22;33252;48.122;11.538;2023-02-11T02:36:26;-1.70;98.80
47520;DHT22;33252;48.122;11.538;2023-02-11T02:39:04;-1.70;98.90
47520;DHT22;33252;48.122;11.538;2023-02-11T02:41:32;-1.70;98.80
47520;DHT22;33252;48.122;11.538;2023-02-11T02:43:59;-1.70;98.80
47520;DHT22;33252;48.122;11.538;2023-02-11T02:46:28;-1.70;98.90
47520;DHT22;33252;48.122;11.538;2023-02-11T02:48:55;-1.70;98.90
47520;DHT22;33252;48.122;11.538;2023-02-11T03:08:06;-1.70;98.70
47520;DHT22;33252;48.122;11.538;2023-02-11T03:10:40;-1.80;98.80
47520;DHT22;33252;48.122;11.538;2023-02-11T03:13:07;-1.70;98.70
47520;DHT22;33252;48.122;11.538;2023-02-11T03:15:37;-1.70;98.70
47520;DHT22;33252;48.122;11.538;2023-02-11T03:18:05;-1.70;98.50
47520;DHT22;33252;48.122;11.538;2023-02-11T03:20:35;-1.80;98.60
47520;DHT22;33252;48.122;11.538;2023-02-11T03:23:11;-1.80;98.40
47520;DHT22;33252;48.122;11.538;2023-02-11T03:25:47;-1.80;98.30
47520;DHT22;33252;48.122;11.538;2023-02-11T03:28:30;-1.70;98.20
47520;DHT22;33252;48.122;11.538;2023-02-11T03:33:44;-1.70;97.80
47520;DHT22;33252;48.122;11.538;2023-02-11T03:36:18;-1.70;97.70
47520;DHT22;33252;48.122;11.538;2023-02-11T03:38:53;-1.70;97.50
47520;DHT22;33252;48.122;11.538;2023-02-11T03:41:22;-1.60;97.30
47520;DHT22;33252;48.122;11.538;2023-02-11T03:43:54;-1.50;97.00
47520;DHT22;33252;48.122;11.538;2023-02-11T03:46:26;-1.50;97.00
47520;DHT22;33252;48.122;11.538;2023-02-11T03:48:57;-1.60;97.00
47520;DHT22;33252;48.122;11.538;2023-02-11T03:51:24;-1.60;97.00
47520;DHT22;33252;48.122;11.538;2023-02-11T03:53:54;-1.60;96.80
47520;DHT22;33252;48.122;11.538;2023-02-11T03:56:25;-1.60;96.80
47520;DHT22;33252;48.122;11.538;2023-02-11T03:58:51;-1.70;96.80
47520;DHT22;33252;48.122;11.538;2023-02-11T04:01:17;-1.60;96.80
47520;DHT22;33252;48.122;11.538;2023-02-11T04:03:43;-1.70;96.80
47520;DHT22;33252;48.122;11.538;2023-02-11T04:06:08;-1.70;96.90
47520;DHT22;33252;48.122;11.538;2023-02-11T04:08:34;-1.90;97.20
47520;DHT22;33252;48.122;11.538;2023-02-11T04:11:00;-1.70;96.90
47520;DHT22;33252;48.122;11.538;2023-02-11T04:13:26;-1.70;96.80
47520;DHT22;33252;48.122;11.538;2023-02-11T04:15:51;-1.80;96.90
47520;DHT22;33252;48.122;11.538;2023-02-11T04:18:17;-1.90;97.00
47520;DHT22;33252;48.122;11.538;2023-02-11T04:20:43;-1.80;97.00
47520;DHT22;33252;48.122;11.538;2023-02-11T04:23:08;-1.80;97.00
47520;DHT22;33252;48.122;11.538;2023-02-11T04:25:34;-1.90;97.10
47520;DHT22;33252;48.122;11.538;2023-02-11T04:28:00;-1.90;97.10
47520;DHT22;33252;48.122;11.538;2023-02-11T04:30:26;-1.90;97.10
47520;DHT22;33252;48.122;11.538;2023-02-11T04:32:52;-2.00;97.10
47520;DHT22;33252;48.122;11.538;2023-02-11T04:35:19;-1.90;97.30
47520;DHT22;33252;48.122;11.538;2023-02-11T04:37:44;-1.80;97.10
47520;DHT22;33252;48.122;11.538;2023-02-11T04:40:10;-2.00;97.40
47520;DHT22;33252;48.122;11.538;2023-02-11T04:42:36;-1.90;97.30
47520;DHT22;33252;48.122;11.538;2023-02-11T04:45:02;-2.00;97.20
47520;DHT22;33252;48.122;11.538;2023-02-11T04:47:28;-2.00;97.10
47520;DHT22;33252;48.122;11.538;2023-02-11T04:49:53;-2.00;97.30
47520;DHT22;33252;48.122;11.538;2023-02-11T04:52:19;-2.10;97.60
47520;DHT22;33252;48.122;11.538;2023-02-11T04:54:45;-2.00;97.60
47520;DHT22;33252;48.122;11.538;2023-02-11T04:57:10;-2.10;97.50
47520;DHT22;33252;48.122;11.538;2023-02-11T04:59:36;-2.10;97.70
47520;DHT22;33252;48.122;11.538;2023-02-11T05:02:02;-2.00;97.60
47520;DHT22;33252;48.122;11.538;2023-02-11T05:04:28;-2.00;97.50
47520;DHT22;33252;48.122;11.538;2023-02-11T05:06:57;-2.10;97.50
47520;DHT22;33252;48.122;11.538;2023-02-11T05:09:22;-2.10;97.60
47520;DHT22;33252;48.122;11.538;2023-02-11T05:11:48;-2.10;97.90
47520;DHT22;33252;48.122;11.538;2023-02-11T05:14:14;-2.10;97.90
47520;DHT22;33252;48.122;11.538;2023-02-11T05:16:39;-2.00;97.90
47520;DHT22;33252;48.122;11.538;2023-02-11T05:19:05;-1.90;97.70
47520;DHT22;33252;48.122;11.538;2023-02-11T05:21:31;-1.90;97.70
47520;DHT22;33252;48.122;11.538;2023-02-11T05:23:56;-1.90;97.70
47520;DHT22;33252;48.122;11.538;2023-02-11T05:26:22;-1.80;97.60
47520;DHT22;33252;48.122;11.538;2023-02-11T05:28:48;-1.70;97.70
47520;DHT22;33252;48.122;11.538;2023-02-11T05:31:14;-1.70;97.70
47520;DHT22;33252;48.122;11.538;2023-02-11T05:33:41;-1.60;97.60
47520;DHT22;33252;48.122;11.538;2023-02-11T05:36:09;-1.60;97.50
47520;DHT22;33252;48.122;11.538;2023-02-11T05:38:35;-1.50;97.40
47520;DHT22;33252;48.122;11.538;2023-02-11T05:41:03;-1.50;97.50
47520;DHT22;33252;48.122;11.538;2023-02-11T05:43:29;-1.50;97.60
47520;DHT22;33252;48.122;11.538;2023-02-11T05:45:54;-1.50;97.50
47520;DHT22;33252;48.122;11.538;2023-02-11T05:48:20;-1.50;97.70
47520;DHT22;33252;48.122;11.538;2023-02-11T05:50:46;-1.50;97.60
47520;DHT22;33252;48.122;11.538;2023-02-11T05:53:11;-1.40;97.80
47520;DHT22;33252;48.122;11.538;2023-02-11T05:55:37;-1.40;97.50
47520;DHT22;33252;48.122;11.538;2023-02-11T05:58:03;-1.40;97.60
47520;DHT22;33252;48.122;11.538;2023-02-11T06:00:29;-1.40;97.70
47520;DHT22;33252;48.122;11.538;2023-02-11T06:02:54;-1.40;97.70
47520;DHT22;33252;48.122;11.538;2023-02-11T06:05:20;-1.30;97.70
47520;DHT22;33252;48.122;11.538;2023-02-11T06:07:46;-1.30;97.90
47520;DHT22;33252;48.122;11.538;2023-02-11T06:10:11;-1.20;97.90
47520;DHT22;33252;48.122;11.538;2023-02-11T06:12:37;-1.30;98.00
47520;DHT22;33252;48.122;11.538;2023-02-11T06:15:04;-1.30;97.90
47520;DHT22;33252;48.122;11.538;2023-02-11T06:17:30;-1.20;97.80
47520;DHT22;33252;48.122;11.538;2023-02-11T06:20:01;-1.20;97.80
47520;DHT22;33252;48.122;11.538;2023-02-11T06:22:28;-1.20;97.70
47520;DHT22;33252;48.122;11.538;2023-02-11T06:24:54;-1.10;97.40
47520;DHT22;33252;48.122;11.538;2023-02-11T06:27:20;-1.00;97.40
47520;DHT22;33252;48.122;11.538;2023-02-11T06:29:46;-1.00;97.50
47520;DHT22;33252;48.122;11.538;2023-02-11T06:32:12;-1.00;97.10
47520;DHT22;33252;48.122;11.538;2023-02-11T06:34:38;-0.90;96.80
47520;DHT22;33252;48.122;11.538;2023-02-11T06:37:04;-0.90;96.80
47520;DHT22;33252;48.122;11.538;2023-02-11T06:39:30;-0.90;96.90
47520;DHT22;33252;48.122;11.538;2023-02-11T06:41:55;-0.80;96.60
47520;DHT22;33252;48.122;11.538;2023-02-11T06:44:21;-0.80;96.60
47520;DHT22;33252;48.122;11.538;2023-02-11T06:46:47;-0.70;96.50
47520;DHT22;33252;48.122;11.538;2023-02-11T06:49:12;-0.70;96.20
47520;DHT22;33252;48.122;11.538;2023-02-11T06:51:38;-0.70;96.00
47520;DHT22;33252;48.122;11.538;2023-02-11T06:54:05;-0.70;95.60
47520;DHT22;33252;48.122;11.538;2023-02-11T06:56:30;-0.60;95.40
47520;DHT22;33252;48.122;11.538;2023-02-11T06:58:57;-0.60;95.30
47520;DHT22;33252;48.122;11.538;2023-02-11T07:01:24;-0.50;94.60
47520;DHT22;33252;48.122;11.538;2023-02-11T07:03:50;-0.50;94.60
47520;DHT22;33252;48.122;11.538;2023-02-11T07:06:22;-0.50;94.50
47520;DHT22;33252;48.122;11.538;2023-02-11T07:08:49;-0.40;94.50
47520;DHT22;33252;48.122;11.538;2023-02-11T07:11:18;-0.40;94.70
47520;DHT22;33252;48.122;11.538;2023-02-11T07:13:45;-0.40;94.00
47520;DHT22;33252;48.122;11.538;2023-02-11T07:16:14;-0.40;94.30
47520;DHT22;33252;48.122;11.538;2023-02-11T07:18:40;-0.40;93.60
47520;DHT22;33252;48.122;11.538;2023-02-11T07:21:07;-0.20;93.50
47520;DHT22;33252;48.122;11.538;2023-02-11T07:23:34;-0.30;93.80
47520;DHT22;33252;48.122;11.538;2023-02-11T07:26:09;-0.30;93.60
47520;DHT22;33252;48.122;11.538;2023-02-11T07:28:36;-0.20;93.30
47520;DHT22;33252;48.122;11.538;2023-02-11T07:31:22;-0.20;93.60
47520;DHT22;33252;48.122;11.538;2023-02-11T07:33:50;-0.10;93.30
47520;DHT22;33252;48.122;11.538;2023-02-11T07:36:17;-0.10;93.20
47520;DHT22;33252;48.122;11.538;2023-02-11T07:38:43;-0.10;93.30
47520;DHT22;33252;48.122;11.538;2023-02-11T07:41:17;-0.10;93.30
47520;DHT22;33252;48.122;11.538;2023-02-11T07:43:43;0.00;93.10
47520;DHT22;33252;48.122;11.538;2023-02-11T07:46:17;0.00;92.80
47520;DHT22;33252;48.122;11.538;2023-02-11T07:48:43;0.00;93.10
47520;DHT22;33252;48.122;11.538;2023-02-11T07:51:15;0.10;93.00
47520;DHT22;33252;48.122;11.538;2023-02-11T07:53:42;0.10;93.20
47520;DHT22;33252;48.122;11.538;2023-02-11T07:56:09;0.10;93.00
47520;DHT22;33252;48.122;11.538;2023-02-11T07:58:35;0.20;93.00
47520;DHT22;33252;48.122;11.538;2023-02-11T08:01:06;0.20;92.70
47520;DHT22;33252;48.122;11.538;2023-02-11T08:03:32;0.30;92.80
47520;DHT22;33252;48.122;11.538;2023-02-11T08:06:01;0.30;92.60
47520;DHT22;33252;48.122;11.538;2023-02-11T08:08:27;0.30;92.80
47520;DHT22;33252;48.122;11.538;2023-02-11T08:10:53;0.30;92.80
47520;DHT22;33252;48.122;11.538;2023-02-11T08:13:18;0.40;92.60
47520;DHT22;33252;48.122;11.538;2023-02-11T08:15:44;0.40;92.80
47520;DHT22;33252;48.122;11.538;2023-02-11T08:18:09;0.50;92.60
47520;DHT22;33252;48.122;11.538;2023-02-11T08:20:35;0.50;92.80
47520;DHT22;33252;48.122;11.538;2023-02-11T08:23:01;0.60;92.40
47520;DHT22;33252;48.122;11.538;2023-02-11T08:25:27;0.70;92.70
47520;DHT22;33252;48.122;11.538;2023-02-11T08:27:53;0.80;92.60
47520;DHT22;33252;48.122;11.538;2023-02-11T08:30:18;0.90;92.70
47520;DHT22;33252;48.122;11.538;2023-02-11T08:32:44;0.90;92.20
47520;DHT22;33252;48.122;11.538;2023-02-11T08:35:10;1.00;92.30
47520;DHT22;33252;48.122;11.538;2023-02-11T08:37:37;1.00;92.20
47520;DHT22;33252;48.122;11.538;2023-02-11T08:40:03;1.00;92.20
47520;DHT22;33252;48.122;11.538;2023-02-11T08:42:29;1.10;92.30
47520;DHT22;33252;48.122;11.538;2023-02-11T08:44:55;1.10;92.20
47520;DHT22;33252;48.122;11.538;2023-02-11T08:47:20;1.10;92.40
47520;DHT22;33252;48.122;11.538;2023-02-11T08:49:46;1.20;92.40
47520;DHT22;33252;48.122;11.538;2023-02-11T08:52:11;1.20;92.50
47520;DHT22;33252;48.122;11.538;2023-02-11T08:54:37;1.30;92.60
47520;DHT22;33252;48.122;11.538;2023-02-11T08:57:06;1.30;92.40
47520;DHT22;33252;48.122;11.538;2023-02-11T08:59:32;1.30;92.40
47520;DHT22;33252;48.122;11.538;2023-02-11T09:01:57;1.40;92.40
47520;DHT22;33252;48.122;11.538;2023-02-11T09:04:23;1.50;92.50
47520;DHT22;33252;48.122;11.538;2023-02-11T09:06:49;1.50;92.20
47520;DHT22;33252;48.122;11.538;2023-02-11T09:09:15;1.60;92.30
47520;DHT22;33252;48.122;11.538;2023-02-11T09:11:42;1.70;92.20
47520;DHT22;33252;48.122;11.538;2023-02-11T09:14:15;1.70;92.10
47520;DHT22;33252;48.122;11.538;2023-02-11T09:16:42;1.70;92.10
47520;DHT22;33252;48.122;11.538;2023-02-11T09:19:09;1.60;92.10
47520;DHT22;33252;48.122;11.538;2023-02-11T09:21:34;1.70;92.30
47520;DHT22;33252;48.122;11.538;2023-02-11T09:24:00;1.80;92.00
47520;DHT22;33252;48.122;11.538;2023-02-11T09:26:28;1.90;92.00
47520;DHT22;33252;48.122;11.538;2023-02-11T09:28:54;1.90;91.70
47520;DHT22;33252;48.122;11.538;2023-02-11T09:31:23;2.00;91.70
47520;DHT22;33252;48.122;11.538;2023-02-11T09:33:50;1.90;91.40
47520;DHT22;33252;48.122;11.538;2023-02-11T09:36:19;1.90;91.20
47520;DHT22;33252;48.122;11.538;2023-02-11T09:38:45;2.00;91.20
47520;DHT22;33252;48.122;11.538;2023-02-11T09:44:01;2.00;91.70
47520;DHT22;33252;48.122;11.538;2023-02-11T09:46:31;2.10;91.80
47520;DHT22;33252;48.122;11.538;2023-02-11T09:48:58;2.00;91.50
47520;DHT22;33252;48.122;11.538;2023-02-11T09:51:39;2.10;91.60
47520;DHT22;33252;48.122;11.538;2023-02-11T09:54:15;2.00;91.60
47520;DHT22;33252;48.122;11.538;2023-02-11T09:56:43;2.10;91.60
47520;DHT22;33252;48.122;11.538;2023-02-11T09:59:13;2.20;91.40
47520;DHT22;33252;48.122;11.538;2023-02-11T10:01:52;2.40;91.30
47520;DHT22;33252;48.122;11.538;2023-02-11T10:04:30;2.80;91.10
47520;DHT22;33252;48.122;11.538;2023-02-11T10:07:24;3.00;90.50
47520;DHT22;33252;48.122;11.538;2023-02-11T10:12:34;3.30;90.40
47520;DHT22;33252;48.122;11.538;2023-02-11T10:15:23;3.40;90.30
47520;DHT22;33252;48.122;11.538;2023-02-11T10:18:29;3.40;89.60
47520;DHT22;33252;48.122;11.538;2023-02-11T10:23:53;3.40;89.60
47520;DHT22;33252;48.122;11.538;2023-02-11T10:26:20;3.50;90.00
47520;DHT22;33252;48.122;11.538;2023-02-11T10:28:49;3.60;89.70
47520;DHT22;33252;48.122;11.538;2023-02-11T10:34:05;3.70;89.10
47520;DHT22;33252;48.122;11.538;2023-02-11T10:36:37;3.60;88.40
47520;DHT22;33252;48.122;11.538;2023-02-11T10:39:29;3.70;89.10
47520;DHT22;33252;48.122;11.538;2023-02-11T10:42:04;3.70;88.90
47520;DHT22;33252;48.122;11.538;2023-02-11T10:44:38;3.70;88.90
47520;DHT22;33252;48.122;11.538;2023-02-11T10:47:18;3.70;89.10
47520;DHT22;33252;48.122;11.538;2023-02-11T10:49:46;3.80;88.40
47520;DHT22;33252;48.122;11.538;2023-02-11T10:54:37;3.90;88.10
47520;DHT22;33252;48.122;11.538;2023-02-11T10:57:03;3.90;88.20
47520;DHT22;33252;48.122;11.538;2023-02-11T10:59:37;3.90;88.50
47520;DHT22;33252;48.122;11.538;2023-02-11T11:02:22;4.00;88.30
47520;DHT22;33252;48.122;11.538;2023-02-11T11:04:49;4.10;87.60
47520;DHT22;33252;48.122;11.538;2023-02-11T11:07:23;4.10;87.90
47520;DHT22;33252;48.122;11.538;2023-02-11T11:09:57;4.30;87.40
47520;DHT22;33252;48.122;11.538;2023-02-11T11:15:23;4.30;86.70
47520;DHT22;33252;48.122;11.538;2023-02-11T11:17:49;4.40;86.70
47520;DHT22;33252;48.122;11.538;2023-02-11T11:20:24;4.30;85.90
47520;DHT22;33252;48.122;11.538;2023-02-11T11:23:17;4.50;85.80
47520;DHT22;33252;48.122;11.538;2023-02-11T11:25:57;4.50;84.60
47520;DHT22;33252;48.122;11.538;2023-02-11T11:28:25;4.50;84.40
47520;DHT22;33252;48.122;11.538;2023-02-11T11:30:54;4.50;84.00
47520;DHT22;33252;48.122;11.538;2023-02-11T11:33:32;4.60;84.50
47520;DHT22;33252;48.122;11.538;2023-02-11T11:36:09;4.80;84.20
47520;DHT22;33252;48.122;11.538;2023-02-11T11:38:42;4.70;84.70
47520;DHT22;33252;48.122;11.538;2023-02-11T11:41:18;4.90;85.10
47520;DHT22;33252;48.122;11.538;2023-02-11T11:46:41;4.70;82.90
47520;DHT22;33252;48.122;11.538;2023-02-11T11:51:46;5.10;82.50
47520;DHT22;33252;48.122;11.538;2023-02-11T11:54:16;5.20;83.20
47520;DHT22;33252;48.122;11.538;2023-02-11T11:57:15;5.20;82.80
47520;DHT22;33252;48.122;11.538;2023-02-11T11:59:41;5.40;82.30
47520;DHT22;33252;48.122;11.538;2023-02-11T12:13:13;5.30;75.40
47520;DHT22;33252;48.122;11.538;2023-02-11T12:15:55;5.30;75.90
47520;DHT22;33252;48.122;11.538;2023-02-11T12:18:47;5.30;74.20
47520;DHT22;33252;48.122;11.538;2023-02-11T12:23:51;5.20;74.90
47520;DHT22;33252;48.122;11.538;2023-02-11T12:26:23;5.30;75.50
47520;DHT22;33252;48.122;11.538;2023-02-11T12:37:22;5.50;76.20
47520;DHT22;33252;48.122;11.538;2023-02-11T12:42:49;5.50;76.40
47520;DHT22;33252;48.122;11.538;2023-02-11T12:59:11;5.80;76.40
47520;DHT22;33252;48.122;11.538;2023-02-11T13:01:41;5.80;76.10
47520;DHT22;33252;48.122;11.538;2023-02-11T13:04:13;5.70;76.70
47520;DHT22;33252;48.122;11.538;2023-02-11T13:06:48;5.60;76.80
47520;DHT22;33252;48.122;11.538;2023-02-11T13:09:25;5.70;76.40
47520;DHT22;33252;48.122;11.538;2023-02-11T13:11:54;5.70;75.50
47520;DHT22;33252;48.122;11.538;2023-02-11T13:14:29;5.70;76.30
47520;DHT22;33252;48.122;11.538;2023-02-11T13:17:00;5.60;76.20
47520;DHT22;33252;48.122;11.538;2023-02-11T13:19:52;5.70;76.10
47520;DHT22;33252;48.122;11.538;2023-02-11T13:27:56;6.30;74.20
47520;DHT22;33252;48.122;11.538;2023-02-11T13:35:45;6.70;73.50
47520;DHT22;33252;48.122;11.538;2023-02-11T13:38:21;6.80;71.90
47520;DHT22;33252;48.122;11.538;2023-02-11T13:46:57;7.00;72.20
47520;DHT22;33252;48.122;11.538;2023-02-11T13:49:31;6.90;72.10
47520;DHT22;33252;48.122;11.538;2023-02-11T13:51:58;7.00;72.50
47520;DHT22;33252;48.122;11.538;2023-02-11T13:54:39;7.00;71.90
47520;DHT22;33252;48.122;11.538;2023-02-11T13:59:47;6.70;73.40
47520;DHT22;33252;48.122;11.538;2023-02-11T14:05:15;6.80;74.10
47520;DHT22;33252;48.122;11.538;2023-02-11T14:15:46;6.80;74.00
47520;DHT22;33252;48.122;11.538;2023-02-11T14:21:35;6.90;73.60
47520;DHT22;33252;48.122;11.538;2023-02-11T14:27:00;6.80;73.00
47520;DHT22;33252;48.122;11.538;2023-02-11T14:32:50;6.70;73.60
47520;DHT22;33252;48.122;11.538;2023-02-11T14:35:46;6.70;73.70
47520;DHT22;33252;48.122;11.538;2023-02-11T14:41:34;6.70;74.10
47520;DHT22;33252;48.122;11.538;2023-02-11T14:44:05;6.60;74.80
47520;DHT22;33252;48.122;11.538;2023-02-11T14:46:31;6.50;74.50
47520;DHT22;33252;48.122;11.538;2023-02-11T14:49:00;6.40;75.30
47520;DHT22;33252;48.122;11.538;2023-02-11T14:51:38;6.30;75.50
47520;DHT22;33252;48.122;11.538;2023-02-11T14:54:17;6.40;76.90
47520;DHT22;33252;48.122;11.538;2023-02-11T14:56:44;6.30;76.90
47520;DHT22;33252;48.122;11.538;2023-02-11T14:59:19;6.20;77.40
47520;DHT22;33252;48.122;11.538;2023-02-11T15:01:52;6.20;77.80
47520;DHT22;33252;48.122;11.538;2023-02-11T15:04:26;6.20;78.30
47520;DHT22;33252;48.122;11.538;2023-02-11T15:06:53;6.30;78.50
47520;DHT22;33252;48.122;11.538;2023-02-11T15:11:57;6.20;79.00
47520;DHT22;33252;48.122;11.538;2023-02-11T15:14:33;6.10;79.20
47520;DHT22;33252;48.122;11.538;2023-02-11T15:17:05;6.10;79.50
47520;DHT22;33252;48.122;11.538;2023-02-11T15:22:19;6.10;80.00
47520;DHT22;33252;48.122;11.538;2023-02-11T15:25:08;6.00;80.80
47520;DHT22;33252;48.122;11.538;2023-02-11T15:27:43;6.00;80.60
47520;DHT22;33252;48.122;11.538;2023-02-11T15:33:20;6.10;80.30
47520;DHT22;33252;48.122;11.538;2023-02-11T15:35:46;6.10;80.60
47520;DHT22;33252;48.122;11.538;2023-02-11T15:38:15;6.00;81.00
47520;DHT22;33252;48.122;11.538;2023-02-11T15:40:57;5.90;81.50
47520;DHT22;33252;48.122;11.538;2023-02-11T15:43:40;6.00;81.70
47520;DHT22;33252;48.122;11.538;2023-02-11T15:46:05;5.80;82.40
47520;DHT22;33252;48.122;11.538;2023-02-11T15:48:36;5.80;83.10
47520;DHT22;33252;48.122;11.538;2023-02-11T15:51:27;5.80;83.70
47520;DHT22;33252;48.122;11.538;2023-02-11T15:54:00;5.50;84.40
47520;DHT22;33252;48.122;11.538;2023-02-11T15:56:40;5.70;84.30
47520;DHT22;33252;48.122;11.538;2023-02-11T15:59:34;5.60;84.50
47520;DHT22;33252;48.122;11.538;2023-02-11T16:02:08;5.70;84.40
47520;DHT22;33252;48.122;11.538;2023-02-11T16:04:51;5.70;84.50
47520;DHT22;33252;48.122;11.538;2023-02-11T16:07:46;5.60;85.00
47520;DHT22;33252;48.122;11.538;2023-02-11T16:10:21;5.50;85.60
47520;DHT22;33252;48.122;11.538;2023-02-11T16:18:13;5.40;86.50
47520;DHT22;33252;48.122;11.538;2023-02-11T16:20:39;5.40;86.80
47520;DHT22;33252;48.122;11.538;2023-02-11T16:23:06;5.30;86.90
47520;DHT22;33252;48.122;11.538;2023-02-11T16:25:34;5.30;87.30
47520;DHT22;33252;48.122;11.538;2023-02-11T16:28:00;5.20;87.90
47520;DHT22;33252;48.122;11.538;2023-02-11T16:30:32;5.20;88.20
47520;DHT22;33252;48.122;11.538;2023-02-11T16:32:59;5.20;87.90
47520;DHT22;33252;48.122;11.538;2023-02-11T16:35:25;5.20;88.00
47520;DHT22;33252;48.122;11.538;2023-02-11T16:37:50;5.30;88.10
47520;DHT22;33252;48.122;11.538;2023-02-11T16:40:16;5.30;88.00
47520;DHT22;33252;48.122;11.538;2023-02-11T16:42:42;5.20;88.60
47520;DHT22;33252;48.122;11.538;2023-02-11T16:45:08;5.10;88.90
47520;DHT22;33252;48.122;11.538;2023-02-11T16:47:34;5.20;89.10
47520;DHT22;33252;48.122;11.538;2023-02-11T16:50:01;5.20;88.60
47520;DHT22;33252;48.122;11.538;2023-02-11T16:52:27;5.10;88.90
47520;DHT22;33252;48.122;11.538;2023-02-11T16:54:55;5.00;89.40
47520;DHT22;33252;48.122;11.538;2023-02-11T16:57:25;4.80;90.00
47520;DHT22;33252;48.122;11.538;2023-02-11T16:59:51;4.80;90.00
47520;DHT22;33252;48.122;11.538;2023-02-11T17:02:26;4.90;90.10
47520;DHT22;33252;48.122;11.538;2023-02-11T17:04:58;5.10;89.90
47520;DHT22;33252;48.122;11.538;2023-02-11T17:07:23;4.90;90.20
47520;DHT22;33252;48.122;11.538;2023-02-11T17:09:49;4.80;90.50
47520;DHT22;33252;48.122;11.538;2023-02-11T17:12:17;4.70;90.50
47520;DHT22;33252;48.122;11.538;2023-02-11T17:14:42;4.80;90.40
47520;DHT22;33252;48.122;11.538;2023-02-11T17:17:09;4.90;90.50
47520;DHT22;33252;48.122;11.538;2023-02-11T17:19:35;4.90;90.50
47520;DHT22;33252;48.122;11.538;2023-02-11T17:22:01;4.90;90.50
47520;DHT22;33252;48.122;11.538;2023-02-11T17:24:26;4.60;90.90
47520;DHT22;33252;48.122;11.538;2023-02-11T17:26:52;4.60;91.10
47520;DHT22;33252;48.122;11.538;2023-02-11T17:29:21;4.50;91.30
47520;DHT22;33252;48.122;11.538;2023-02-11T17:31:48;4.40;91.50
47520;DHT22;33252;48.122;11.538;2023-02-11T17:34:13;4.60;91.30
47520;DHT22;33252;48.122;11.538;2023-02-11T17:36:39;4.70;91.00
47520;DHT22;33252;48.122;11.538;2023-02-11T17:39:06;4.70;91.10
47520;DHT22;33252;48.122;11.538;2023-02-11T17:41:31;4.70;91.10
47520;DHT22;33252;48.122;11.538;2023-02-11T17:43:58;4.80;91.00
47520;DHT22;33252;48.122;11.538;2023-02-11T17:46:24;4.80;91.20
47520;DHT22;33252;48.122;11.538;2023-02-11T17:48:49;4.90;91.00
47520;DHT22;33252;48.122;11.538;2023-02-11T17:53:50;4.80;91.10
47520;DHT22;33252;48.122;11.538;2023-02-11T17:56:16;4.80;91.20
47520;DHT22;33252;48.122;11.538;2023-02-11T17:58:42;4.70;91.40
47520;DHT22;33252;48.122;11.538;2023-02-11T18:01:07;4.70;91.60
47520;DHT22;33252;48.122;11.538;2023-02-11T18:03:33;4.70;91.50
47520;DHT22;33252;48.122;11.538;2023-02-11T18:06:01;4.70;91.60
47520;DHT22;33252;48.122;11.538;2023-02-11T18:08:27;4.70;91.80
47520;DHT22;33252;48.122;11.538;2023-02-11T18:10:54;4.60;92.10
47520;DHT22;33252;48.122;11.538;2023-02-11T18:13:19;4.50;92.10
47520;DHT22;33252;48.122;11.538;2023-02-11T18:15:45;4.50;92.20
47520;DHT22;33252;48.122;11.538;2023-02-11T18:18:11;4.30;92.60
47520;DHT22;33252;48.122;11.538;2023-02-11T18:20:36;4.30;93.00